createdAt,value
2023-02-19T00:01:13.200Z,19.64
2023-02-19T00:03:39.709Z,19.64
2023-02-19T00:06:06.779Z,19.63
2023-02-19T00:08:33.454Z,19.64
2023-02-19T00:11:00.810Z,19.63
2023-02-19T00:13:27.194Z,19.63
2023-02-19T00:15:53.623Z,19.63
2023-02-19T00:18:20.089Z,19.63
2023-02-19T00:20:46.499Z,19.63
2023-02-19T00:23:12.872Z,19.62
2023-02-19T00:25:39.264Z,19.63
2023-02-19T00:28:05.663Z,19.61
2023-02-19T00:30:32.245Z,19.62
2023-02-19T00:32:58.732Z,19.62
2023-02-19T00:35:25.215Z,19.62
2023-02-19T00:37:54.051Z,19.62
2023-02-19T00:40:20.476Z,19.61
2023-02-19T00:42:46.890Z,19.61
2023-02-19T00:45:13.297Z,19.60
2023-02-19T00:47:39.842Z,19.60
2023-02-19T00:50:06.261Z,19.59
2023-02-19T00:52:32.657Z,19.60
2023-02-19T00:54:59.165Z,19.59
2023-02-19T00:57:25.614Z,19.58
2023-02-19T00:59:52.015Z,19.58
2023-02-19T01:02:18.480Z,19.58
2023-02-19T01:04:44.982Z,19.59
2023-02-19T01:07:14.224Z,19.57
2023-02-19T01:09:40.678Z,19.56
2023-02-19T01:12:07.086Z,19.55
2023-02-19T01:14:33.491Z,19.55
2023-02-19T01:16:59.891Z,19.55
2023-02-19T01:19:26.276Z,19.54
2023-02-19T01:21:52.678Z,19.55
2023-02-19T01:24:19.134Z,19.54
2023-02-19T01:26:45.553Z,19.54
2023-02-19T01:29:12.042Z,19.53
2023-02-19T01:31:38.930Z,19.54
2023-02-19T01:34:06.411Z,19.53
2023-02-19T01:36:33.092Z,19.53
2023-02-19T01:38:59.819Z,19.52
2023-02-19T01:41:26.351Z,19.52
2023-02-19T01:44:01.981Z,19.52
2023-02-19T01:46:29.129Z,19.50
2023-02-19T01:48:55.769Z,19.51
2023-02-19T01:51:22.300Z,19.50
2023-02-19T01:53:55.300Z,19.50
2023-02-19T01:56:21.788Z,19.48
2023-02-19T01:58:48.226Z,19.47
2023-02-19T02:01:14.820Z,19.48
2023-02-19T02:03:41.706Z,19.48
2023-02-19T02:06:09.184Z,19.47
2023-02-19T02:08:54.374Z,19.45
2023-02-19T02:11:20.824Z,19.47
2023-02-19T02:13:47.304Z,19.47
2023-02-19T02:16:17.767Z,19.46
2023-02-19T02:18:48.019Z,19.46
2023-02-19T02:21:26.105Z,19.46
2023-02-19T02:24:07.969Z,19.46
2023-02-19T02:26:52.642Z,19.44
2023-02-19T02:29:26.440Z,19.44
2023-02-19T02:31:59.547Z,19.44
2023-02-19T02:34:37.993Z,19.44
2023-02-19T02:37:04.375Z,19.43
2023-02-19T02:39:30.894Z,19.41
2023-02-19T02:42:16.437Z,19.43
2023-02-19T02:45:02.895Z,19.43
2023-02-19T02:47:42.806Z,19.42
2023-02-19T02:50:09.525Z,19.43
2023-02-19T02:52:55.507Z,19.42
2023-02-19T02:55:22.112Z,19.41
2023-02-19T02:57:48.500Z,19.41
2023-02-19T03:00:14.931Z,19.40
2023-02-19T03:02:41.596Z,19.41
2023-02-19T03:05:29.651Z,19.39
2023-02-19T03:08:04.806Z,19.39
2023-02-19T03:10:36.630Z,19.40
2023-02-19T03:13:21.968Z,19.37
2023-02-19T03:16:08.342Z,19.37
2023-02-19T03:18:53.405Z,19.37
2023-02-19T03:21:19.841Z,19.36
2023-02-19T03:24:05.029Z,19.36
2023-02-19T03:26:31.691Z,19.35
2023-02-19T03:29:17.038Z,19.36
2023-02-19T03:31:43.552Z,19.35
2023-02-19T03:34:10.736Z,19.34
2023-02-19T03:36:42.282Z,19.33
2023-02-19T03:39:09.238Z,19.33
2023-02-19T03:41:35.670Z,19.34
2023-02-19T03:44:02.067Z,19.34
2023-02-19T03:46:28.510Z,19.33
2023-02-19T03:49:05.714Z,19.33
2023-02-19T03:51:39.081Z,19.33
2023-02-19T03:54:17.668Z,19.31
2023-02-19T03:56:45.791Z,19.32
2023-02-19T03:59:17.222Z,19.31
2023-02-19T04:01:49.544Z,19.33
2023-02-19T04:04:17.246Z,19.47
2023-02-19T04:06:43.696Z,19.63
2023-02-19T04:09:10.671Z,19.79
2023-02-19T04:11:37.167Z,19.93
2023-02-19T04:14:06.388Z,20.07
2023-02-19T04:16:32.940Z,20.24
2023-02-19T04:19:00.401Z,20.44
2023-02-19T04:21:26.864Z,20.66
2023-02-19T04:23:53.316Z,20.83
2023-02-19T04:26:20.202Z,20.97
2023-02-19T04:28:46.624Z,21.10
2023-02-19T04:31:13.428Z,21.20
2023-02-19T04:33:40.124Z,21.30
2023-02-19T04:36:07.239Z,21.37
2023-02-19T04:38:33.644Z,21.44
2023-02-19T04:41:00.074Z,21.48
2023-02-19T04:43:26.479Z,21.53
2023-02-19T04:45:52.915Z,21.57
2023-02-19T04:48:19.323Z,21.59
2023-02-19T04:50:45.728Z,21.61
2023-02-19T04:53:12.118Z,21.64
2023-02-19T04:55:38.864Z,21.65
2023-02-19T04:58:05.396Z,21.69
2023-02-19T05:00:31.842Z,21.71
2023-02-19T05:02:58.280Z,21.72
2023-02-19T05:05:24.690Z,21.74
2023-02-19T05:07:51.116Z,21.75
2023-02-19T05:10:17.574Z,21.78
2023-02-19T05:12:43.966Z,21.80
2023-02-19T05:15:10.387Z,21.83
2023-02-19T05:17:36.937Z,21.87
2023-02-19T05:20:03.438Z,21.91
2023-02-19T05:22:29.944Z,21.94
2023-02-19T05:24:56.344Z,21.98
2023-02-19T05:27:22.736Z,22.01
2023-02-19T05:29:49.146Z,22.04
2023-02-19T05:32:15.598Z,22.06
2023-02-19T05:34:41.996Z,22.10
2023-02-19T05:37:08.516Z,22.10
2023-02-19T05:39:34.936Z,22.14
2023-02-19T05:42:01.368Z,22.15
2023-02-19T05:44:27.753Z,22.18
2023-02-19T05:46:54.176Z,22.19
2023-02-19T05:49:20.568Z,22.20
2023-02-19T05:51:46.985Z,22.22
2023-02-19T05:54:13.416Z,22.23
2023-02-19T05:56:40.169Z,22.27
2023-02-19T05:59:08.034Z,22.28
2023-02-19T06:01:34.590Z,22.30
2023-02-19T06:04:01.032Z,22.32
2023-02-19T06:06:27.559Z,22.34
2023-02-19T06:08:54.191Z,22.35
2023-02-19T06:11:20.624Z,22.38
2023-02-19T06:13:47.096Z,22.39
2023-02-19T06:16:13.662Z,22.42
2023-02-19T06:18:41.319Z,22.43
2023-02-19T06:21:08.539Z,22.44
2023-02-19T06:23:35.156Z,22.46
2023-02-19T06:26:05.563Z,22.46
2023-02-19T06:28:31.976Z,22.48
2023-02-19T06:30:58.674Z,22.51
2023-02-19T06:33:26.230Z,22.53
2023-02-19T06:35:52.650Z,22.54
2023-02-19T06:38:20.828Z,22.54
2023-02-19T06:40:47.213Z,22.56
2023-02-19T06:43:13.618Z,22.57
2023-02-19T06:45:40.025Z,22.59
2023-02-19T06:48:06.741Z,22.61
2023-02-19T06:50:33.172Z,22.61
2023-02-19T06:52:59.567Z,22.62
2023-02-19T06:55:26.004Z,22.65
2023-02-19T06:57:52.426Z,22.66
2023-02-19T07:00:18.834Z,22.66
2023-02-19T07:02:45.234Z,22.69
2023-02-19T07:05:11.632Z,22.69
2023-02-19T07:07:38.125Z,22.70
2023-02-19T07:10:04.684Z,22.72
2023-02-19T07:12:31.133Z,22.73
2023-02-19T07:14:57.572Z,22.74
2023-02-19T07:17:24.017Z,22.75
2023-02-19T07:19:50.440Z,22.76
2023-02-19T07:22:16.844Z,22.77
2023-02-19T07:24:43.305Z,22.77
2023-02-19T07:27:09.727Z,22.79
2023-02-19T07:29:36.124Z,22.80
2023-02-19T07:32:02.691Z,22.80
2023-02-19T07:34:29.108Z,22.81
2023-02-19T07:36:55.493Z,22.82
2023-02-19T07:39:21.912Z,22.83
2023-02-19T07:41:48.321Z,22.83
2023-02-19T07:44:16.723Z,22.85
2023-02-19T07:46:44.036Z,22.85
2023-02-19T07:49:10.504Z,22.85
2023-02-19T07:51:39.846Z,22.86
2023-02-19T07:54:06.471Z,22.86
2023-02-19T07:56:32.911Z,22.85
2023-02-19T07:58:59.979Z,22.86
2023-02-19T08:01:44.896Z,22.86
2023-02-19T08:04:11.919Z,22.86
2023-02-19T08:06:38.330Z,22.86
2023-02-19T08:09:05.098Z,22.86
2023-02-19T08:11:50.171Z,22.87
2023-02-19T08:14:16.586Z,22.86
2023-02-19T08:16:50.457Z,22.85
2023-02-19T08:19:16.914Z,22.87
2023-02-19T08:21:43.468Z,22.87
2023-02-19T08:24:09.960Z,22.86
2023-02-19T08:26:36.923Z,22.89
2023-02-19T08:29:04.008Z,22.91
2023-02-19T08:31:30.534Z,22.92
2023-02-19T08:33:57.055Z,22.94
2023-02-19T08:36:23.478Z,22.97
2023-02-19T08:38:49.916Z,23.01
2023-02-19T08:41:16.352Z,23.03
2023-02-19T08:43:42.865Z,23.06
2023-02-19T08:46:10.168Z,23.08
2023-02-19T08:48:36.906Z,23.12
2023-02-19T08:51:04.164Z,23.14
2023-02-19T08:53:30.987Z,23.16
2023-02-19T08:55:57.382Z,23.17
2023-02-19T08:58:26.216Z,23.17
2023-02-19T09:00:52.823Z,23.19
2023-02-19T09:03:19.243Z,23.16
2023-02-19T09:05:46.925Z,23.14
2023-02-19T09:08:13.369Z,23.07
2023-02-19T09:10:39.959Z,23.04
2023-02-19T09:13:06.381Z,22.95
2023-02-19T09:15:33.463Z,22.89
2023-02-19T09:18:00.019Z,22.82
2023-02-19T09:20:26.516Z,22.75
2023-02-19T09:22:56.707Z,22.68
2023-02-19T09:25:23.301Z,22.61
2023-02-19T09:27:49.688Z,22.53
2023-02-19T09:30:16.115Z,22.47
2023-02-19T09:32:42.561Z,22.41
2023-02-19T09:35:09.006Z,22.36
2023-02-19T09:37:35.535Z,22.31
2023-02-19T09:40:01.985Z,22.25
2023-02-19T09:42:29.828Z,22.22
2023-02-19T09:44:56.446Z,22.18
2023-02-19T09:47:23.848Z,22.13
2023-02-19T09:49:54.374Z,22.08
2023-02-19T09:52:25.708Z,22.04
2023-02-19T09:54:52.296Z,22.01
2023-02-19T09:57:19.297Z,21.98
2023-02-19T09:59:45.853Z,21.96
2023-02-19T10:02:19.196Z,21.95
2023-02-19T10:04:46.043Z,21.92
2023-02-19T10:07:16.460Z,21.89
2023-02-19T10:09:44.544Z,21.87
2023-02-19T10:12:18.846Z,21.90
2023-02-19T10:14:46.625Z,21.94
2023-02-19T10:17:26.195Z,21.96
2023-02-19T10:19:52.831Z,21.98
2023-02-19T10:22:19.569Z,21.98
2023-02-19T10:24:46.079Z,21.98
2023-02-19T10:27:13.240Z,21.97
2023-02-19T10:29:39.670Z,21.96
2023-02-19T10:32:18.784Z,21.96
2023-02-19T10:34:45.292Z,21.95
2023-02-19T10:37:15.666Z,21.92
2023-02-19T10:39:45.996Z,21.89
2023-02-19T10:42:16.068Z,21.85
2023-02-19T10:44:43.107Z,21.83
2023-02-19T10:47:09.483Z,21.80
2023-02-19T10:49:37.261Z,21.80
2023-02-19T10:52:17.701Z,21.78
2023-02-19T10:54:44.884Z,21.77
2023-02-19T10:57:25.833Z,21.76
2023-02-19T10:59:53.399Z,21.75
2023-02-19T11:02:20.220Z,21.75
2023-02-19T11:05:02.582Z,21.74
2023-02-19T11:07:29.058Z,21.73
2023-02-19T11:09:55.469Z,21.72
2023-02-19T11:12:25.780Z,21.72
2023-02-19T11:14:52.216Z,21.72
2023-02-19T11:17:27.790Z,21.70
2023-02-19T11:19:58.308Z,21.70
2023-02-19T11:22:40.547Z,21.69
2023-02-19T11:25:09.956Z,21.68
2023-02-19T11:27:36.429Z,21.67
2023-02-19T11:30:21.337Z,21.64
2023-02-19T11:32:50.598Z,21.64
2023-02-19T11:35:18.391Z,21.62
2023-02-19T11:37:55.533Z,21.61
2023-02-19T11:40:22.485Z,21.59
2023-02-19T11:42:54.281Z,21.58
2023-02-19T11:45:33.074Z,21.55
2023-02-19T11:48:05.003Z,21.54
2023-02-19T11:50:31.377Z,21.51
2023-02-19T11:53:03.863Z,21.50
2023-02-19T11:55:33.386Z,21.48
2023-02-19T11:58:18.012Z,21.46
2023-02-19T12:01:03.219Z,21.43
2023-02-19T12:03:34.696Z,21.42
2023-02-19T12:06:10.298Z,21.39
2023-02-19T12:08:55.734Z,21.38
2023-02-19T12:11:25.235Z,21.38
2023-02-19T12:14:06.921Z,21.36
2023-02-19T12:16:56.639Z,21.35
2023-02-19T12:19:35.581Z,21.34
2023-02-19T12:22:05.060Z,21.33
2023-02-19T12:24:35.600Z,21.31
2023-02-19T12:27:17.415Z,21.29
2023-02-19T12:29:43.986Z,21.27
2023-02-19T12:32:22.732Z,21.26
2023-02-19T12:34:49.143Z,21.23
2023-02-19T12:37:21.495Z,21.23
2023-02-19T12:39:51.860Z,21.23
2023-02-19T12:42:37.475Z,21.20
2023-02-19T12:45:08.482Z,21.19
2023-02-19T12:47:36.899Z,21.19
2023-02-19T12:50:22.511Z,21.19
2023-02-19T12:52:52.706Z,21.17
2023-02-19T12:55:22.970Z,21.16
2023-02-19T12:57:49.392Z,21.14
2023-02-19T13:00:34.419Z,21.13
2023-02-19T13:03:20.772Z,21.11
2023-02-19T13:05:47.167Z,21.10
2023-02-19T13:08:15.507Z,21.08
2023-02-19T13:10:41.996Z,21.07
2023-02-19T13:13:12.673Z,21.06
2023-02-19T13:15:43.277Z,21.05
2023-02-19T13:18:13.914Z,21.05
2023-02-19T13:20:41.355Z,21.04
2023-02-19T13:23:38.799Z,21.05
2023-02-19T13:26:14.406Z,21.05
2023-02-19T13:28:54.053Z,21.03
2023-02-19T13:31:20.541Z,21.02
2023-02-19T13:33:52.465Z,21.02
2023-02-19T13:36:20.985Z,21.00
2023-02-19T13:38:47.475Z,20.99
2023-02-19T13:41:17.823Z,20.99
2023-02-19T13:43:47.015Z,20.98
2023-02-19T13:46:14.259Z,20.97
2023-02-19T13:48:41.070Z,20.96
2023-02-19T13:51:17.196Z,20.94
2023-02-19T13:53:44.763Z,20.92
2023-02-19T13:56:29.707Z,20.92
2023-02-19T13:59:01.554Z,20.91
2023-02-19T14:01:54.690Z,20.89
2023-02-19T14:04:39.710Z,20.88
2023-02-19T14:07:06.136Z,20.88
2023-02-19T14:09:43.857Z,20.87
2023-02-19T14:12:10.425Z,20.85
2023-02-19T14:14:40.185Z,20.85
2023-02-19T14:17:09.698Z,20.84
2023-02-19T14:19:42.131Z,20.82
2023-02-19T14:22:27.406Z,20.82
2023-02-19T14:24:53.817Z,20.80
2023-02-19T14:27:20.792Z,20.80
2023-02-19T14:29:47.205Z,20.79
2023-02-19T14:32:16.732Z,20.78
2023-02-19T14:34:44.682Z,20.77
2023-02-19T14:37:18.487Z,20.77
2023-02-19T14:39:45.364Z,20.75
2023-02-19T14:42:19.700Z,20.73
2023-02-19T14:44:53.095Z,20.72
2023-02-19T14:47:20.128Z,20.71
2023-02-19T14:49:49.701Z,20.71
2023-02-19T14:52:24.854Z,20.71
2023-02-19T14:54:55.439Z,20.71
2023-02-19T14:57:26.174Z,20.68
2023-02-19T14:59:58.300Z,20.69
2023-02-19T15:02:26.167Z,20.68
2023-02-19T15:04:52.722Z,20.67
2023-02-19T15:07:20.576Z,20.65
2023-02-19T15:09:47.925Z,20.65
2023-02-19T15:12:21.376Z,20.64
2023-02-19T15:14:47.936Z,20.63
2023-02-19T15:17:30.432Z,20.62
2023-02-19T15:19:57.129Z,20.61
2023-02-19T15:22:24.452Z,20.58
2023-02-19T15:24:50.858Z,20.59
2023-02-19T15:27:26.351Z,20.58
2023-02-19T15:29:53.680Z,20.57
2023-02-19T15:32:22.708Z,20.56
2023-02-19T15:35:02.955Z,20.56
2023-02-19T15:37:32.080Z,20.54
2023-02-19T15:39:59.032Z,20.53
2023-02-19T15:42:25.511Z,20.53
2023-02-19T15:45:03.225Z,20.51
2023-02-19T15:47:35.679Z,20.51
2023-02-19T15:50:13.335Z,20.50
2023-02-19T15:52:45.931Z,20.50
2023-02-19T15:55:17.152Z,20.50
2023-02-19T15:57:44.392Z,20.49
2023-02-19T16:00:13.079Z,20.49
2023-02-19T16:02:39.939Z,20.48
2023-02-19T16:05:13.415Z,20.48
2023-02-19T16:07:39.880Z,20.47
2023-02-19T16:10:18.065Z,20.45
2023-02-19T16:12:44.513Z,20.45
2023-02-19T16:15:20.074Z,20.44
2023-02-19T16:17:46.501Z,20.42
2023-02-19T16:20:20.967Z,20.42
2023-02-19T16:22:47.357Z,20.41
2023-02-19T16:25:42.027Z,20.40
2023-02-19T16:28:14.567Z,20.40
2023-02-19T16:30:41.090Z,20.39
2023-02-19T16:33:20.796Z,20.38
2023-02-19T16:35:48.307Z,20.38
2023-02-19T16:38:15.238Z,20.37
2023-02-19T16:40:55.251Z,20.36
2023-02-19T16:43:27.781Z,20.36
2023-02-19T16:45:54.214Z,20.34
2023-02-19T16:48:21.309Z,20.33
2023-02-19T16:50:47.701Z,20.32
2023-02-19T16:53:18.494Z,20.32
2023-02-19T16:55:44.905Z,20.31
2023-02-19T16:58:11.305Z,20.31
2023-02-19T17:00:37.712Z,20.31
2023-02-19T17:03:17.445Z,20.30
2023-02-19T17:05:43.883Z,20.30
2023-02-19T17:08:29.635Z,20.28
2023-02-19T17:10:56.331Z,20.28
2023-02-19T17:13:22.775Z,20.27
2023-02-19T17:15:49.249Z,20.27
2023-02-19T17:18:15.704Z,20.26
2023-02-19T17:20:42.222Z,20.26
2023-02-19T17:23:08.695Z,20.25
2023-02-19T17:25:35.163Z,20.25
2023-02-19T17:28:01.613Z,20.23
2023-02-19T17:30:33.847Z,20.23
2023-02-19T17:33:00.375Z,20.21
2023-02-19T17:35:26.836Z,20.20
2023-02-19T17:37:53.587Z,20.20
2023-02-19T17:40:31.875Z,20.18
2023-02-19T17:42:58.959Z,20.19
2023-02-19T17:45:25.399Z,20.17
2023-02-19T17:47:51.905Z,20.15
2023-02-19T17:50:19.569Z,20.13
2023-02-19T17:52:46.031Z,20.12
2023-02-19T17:55:12.776Z,20.12
2023-02-19T17:57:39.200Z,20.09
2023-02-19T18:00:06.128Z,20.10
2023-02-19T18:02:32.524Z,20.08
2023-02-19T18:04:58.921Z,20.08
2023-02-19T18:07:25.417Z,20.06
2023-02-19T18:09:51.956Z,20.03
2023-02-19T18:12:18.373Z,20.00
2023-02-19T18:14:47.865Z,20.00
2023-02-19T18:17:14.862Z,19.98
2023-02-19T18:19:42.907Z,19.97
2023-02-19T18:22:09.364Z,19.95
2023-02-19T18:24:35.967Z,19.94
2023-02-19T18:27:02.392Z,19.94
2023-02-19T18:29:30.366Z,19.93
2023-02-19T18:31:57.156Z,19.93
2023-02-19T18:34:23.619Z,19.93
2023-02-19T18:36:50.135Z,19.91
2023-02-19T18:39:16.613Z,19.91
2023-02-19T18:41:46.421Z,19.89
2023-02-19T18:44:12.801Z,19.89
2023-02-19T18:46:39.220Z,19.87
2023-02-19T18:49:05.654Z,19.87
2023-02-19T18:51:32.082Z,19.88
2023-02-19T18:54:01.678Z,19.89
2023-02-19T18:56:29.493Z,19.86
2023-02-19T18:58:55.906Z,19.86
2023-02-19T19:01:22.415Z,19.84
2023-02-19T19:03:48.819Z,19.83
2023-02-19T19:06:15.218Z,19.82
2023-02-19T19:08:41.726Z,19.82
2023-02-19T19:11:08.490Z,19.80
2023-02-19T19:13:34.892Z,19.79
2023-02-19T19:16:01.308Z,19.77
2023-02-19T19:18:27.961Z,19.76
2023-02-19T19:20:56.675Z,19.75
2023-02-19T19:23:23.109Z,19.75
2023-02-19T19:25:49.520Z,19.76
2023-02-19T19:28:16.000Z,19.78
2023-02-19T19:30:42.557Z,19.79
2023-02-19T19:33:09.004Z,19.80
2023-02-19T19:35:35.424Z,19.81
2023-02-19T19:38:01.868Z,19.81
2023-02-19T19:40:28.378Z,19.81
2023-02-19T19:42:54.874Z,19.81
2023-02-19T19:45:21.379Z,19.81
2023-02-19T19:47:48.762Z,19.79
2023-02-19T19:50:15.716Z,19.78
2023-02-19T19:52:42.221Z,19.79
2023-02-19T19:55:08.741Z,19.76
2023-02-19T19:57:35.156Z,19.75
2023-02-19T20:00:01.536Z,19.74
2023-02-19T20:02:28.066Z,19.73
2023-02-19T20:04:54.550Z,19.73
2023-02-19T20:07:21.061Z,19.71
2023-02-19T20:09:48.317Z,19.69
2023-02-19T20:12:14.938Z,19.69
2023-02-19T20:14:43.364Z,19.67
2023-02-19T20:17:09.799Z,19.64
2023-02-19T20:19:36.232Z,19.62
2023-02-19T20:22:02.653Z,19.61
2023-02-19T20:24:29.112Z,19.60
2023-02-19T20:26:58.575Z,19.62
2023-02-19T20:29:29.075Z,19.60
2023-02-19T20:31:56.547Z,19.59
2023-02-19T20:34:23.238Z,19.57
2023-02-19T20:36:49.752Z,19.58
2023-02-19T20:39:16.675Z,19.58
2023-02-19T20:41:46.551Z,19.57
2023-02-19T20:44:13.112Z,19.55
2023-02-19T20:46:47.124Z,19.53
2023-02-19T20:49:13.727Z,19.52
2023-02-19T20:51:44.272Z,19.50
2023-02-19T20:54:10.677Z,19.52
2023-02-19T20:56:37.113Z,19.51
2023-02-19T20:59:03.567Z,19.53
2023-02-19T21:01:30.152Z,19.52
2023-02-19T21:03:56.566Z,19.51
2023-02-19T21:06:23.048Z,19.48
2023-02-19T21:08:49.501Z,19.49
2023-02-19T21:11:15.959Z,19.48
2023-02-19T21:13:42.698Z,19.45
2023-02-19T21:16:09.236Z,19.47
2023-02-19T21:18:35.787Z,19.45
2023-02-19T21:21:02.198Z,19.44
2023-02-19T21:23:28.620Z,19.43
2023-02-19T21:25:55.026Z,19.41
2023-02-19T21:28:21.449Z,19.41
2023-02-19T21:30:47.844Z,19.40
2023-02-19T21:33:14.552Z,19.39
2023-02-19T21:35:40.930Z,19.41
2023-02-19T21:38:07.413Z,19.41
2023-02-19T21:40:34.138Z,19.40
2023-02-19T21:43:00.588Z,19.39
2023-02-19T21:45:27.081Z,19.37
2023-02-19T21:47:55.043Z,19.39
2023-02-19T21:50:21.857Z,19.39
2023-02-19T21:52:48.314Z,19.41
2023-02-19T21:55:14.786Z,19.41
2023-02-19T21:57:41.328Z,19.42
2023-02-19T22:00:08.494Z,19.40
2023-02-19T22:02:35.042Z,19.42
2023-02-19T22:05:02.600Z,19.42
2023-02-19T22:07:30.634Z,19.39
2023-02-19T22:09:57.037Z,19.36
2023-02-19T22:12:23.457Z,19.39
2023-02-19T22:14:49.978Z,19.37
2023-02-19T22:17:16.398Z,19.35
2023-02-19T22:19:42.860Z,19.32
2023-02-19T22:22:09.298Z,19.29
2023-02-19T22:24:35.711Z,19.30
2023-02-19T22:27:11.244Z,19.30
2023-02-19T22:29:37.723Z,19.30
2023-02-19T22:32:13.290Z,19.31
2023-02-19T22:34:42.718Z,19.31
2023-02-19T22:37:09.507Z,19.30
2023-02-19T22:39:36.392Z,19.27
2023-02-19T22:42:02.878Z,19.26
2023-02-19T22:44:29.390Z,19.25
2023-02-19T22:46:56.145Z,19.23
2023-02-19T22:49:22.793Z,19.21
2023-02-19T22:52:09.505Z,19.18
2023-02-19T22:54:36.173Z,19.15
2023-02-19T22:57:02.592Z,19.14
2023-02-19T22:59:28.993Z,19.12
2023-02-19T23:01:57.750Z,19.13
2023-02-19T23:04:24.458Z,19.10
2023-02-19T23:06:51.211Z,19.09
2023-02-19T23:09:19.335Z,19.06
2023-02-19T23:11:45.870Z,19.05
2023-02-19T23:14:12.315Z,19.04
2023-02-19T23:16:38.977Z,19.03
2023-02-19T23:19:05.912Z,19.01
2023-02-19T23:21:32.735Z,19.01
2023-02-19T23:23:59.303Z,19.01
2023-02-19T23:26:25.866Z,19.01
2023-02-19T23:28:52.294Z,19.02
2023-02-19T23:31:19.023Z,19.04
2023-02-19T23:33:45.528Z,19.01
2023-02-19T23:36:12.277Z,19.01
2023-02-19T23:38:38.872Z,18.99
2023-02-19T23:41:08.724Z,18.98
2023-02-19T23:43:35.154Z,18.98
2023-02-19T23:46:01.863Z,18.99
2023-02-19T23:48:28.324Z,18.97
2023-02-19T23:50:54.765Z,18.95
2023-02-19T23:53:21.183Z,18.92
2023-02-19T23:55:47.637Z,18.92
2023-02-19T23:58:14.112Z,18.91
